createdAt,value
2023-05-19T00:01:21.054Z,75.80
2023-05-19T00:02:24.750Z,75.86
2023-05-19T00:04:01.072Z,76.00
2023-05-19T00:05:04.164Z,75.92
2023-05-19T00:06:07.915Z,75.97
2023-05-19T00:07:43.763Z,75.97
2023-05-19T00:08:46.950Z,75.87
2023-05-19T00:09:50.225Z,75.83
2023-05-19T00:11:25.170Z,75.96
2023-05-19T00:12:28.186Z,76.03
2023-05-19T00:13:34.349Z,76.25
2023-05-19T00:15:09.579Z,76.46
2023-05-19T00:16:12.895Z,76.39
2023-05-19T00:17:16.730Z,76.69
2023-05-19T00:18:52.327Z,76.67
2023-05-19T00:19:55.818Z,76.65
2023-05-19T00:20:59.234Z,76.70
2023-05-19T00:22:34.242Z,76.83
2023-05-19T00:23:37.555Z,76.87
2023-05-19T00:24:40.882Z,76.88
2023-05-19T00:26:16.123Z,76.93
2023-05-19T00:27:19.298Z,76.78
2023-05-19T00:28:22.645Z,76.90
2023-05-19T00:29:57.697Z,76.97
2023-05-19T00:31:00.837Z,76.89
2023-05-19T00:32:04.308Z,76.92
2023-05-19T00:33:40.148Z,77.09
2023-05-19T00:34:43.767Z,77.47
2023-05-19T00:35:46.904Z,77.34
2023-05-19T00:37:22.030Z,77.42
2023-05-19T00:38:25.089Z,77.54
2023-05-19T00:39:28.425Z,77.47
2023-05-19T00:41:03.265Z,77.80
2023-05-19T00:42:06.673Z,77.85
2023-05-19T00:43:09.762Z,77.79
2023-05-19T00:44:44.713Z,77.89
2023-05-19T00:45:47.921Z,77.87
2023-05-19T00:46:51.468Z,78.11
2023-05-19T00:48:27.183Z,78.07
2023-05-19T00:49:30.462Z,78.05
2023-05-19T00:50:33.963Z,78.26
2023-05-19T00:52:09.638Z,78.29
2023-05-19T00:53:13.160Z,78.34
2023-05-19T00:54:16.439Z,78.52
2023-05-19T00:55:51.759Z,78.56
2023-05-19T00:56:55.204Z,78.63
2023-05-19T00:57:58.469Z,78.55
2023-05-19T00:59:33.659Z,78.58
2023-05-19T01:01:22.451Z,78.87
2023-05-19T01:02:25.993Z,79.10
2023-05-19T01:04:02.024Z,79.11
2023-05-19T01:05:05.248Z,79.42
2023-05-19T01:06:08.422Z,79.45
2023-05-19T01:07:43.837Z,79.54
2023-05-19T01:08:46.863Z,79.70
2023-05-19T01:09:50.232Z,79.82
2023-05-19T01:11:25.278Z,79.97
2023-05-19T01:12:28.458Z,80.05
2023-05-19T01:13:31.601Z,80.08
2023-05-19T01:15:09.104Z,80.15
2023-05-19T01:16:12.074Z,80.04
2023-05-19T01:17:15.807Z,80.07
2023-05-19T01:18:51.354Z,80.06
2023-05-19T01:19:55.166Z,80.09
2023-05-19T01:20:58.337Z,80.24
2023-05-19T01:22:33.118Z,80.37
2023-05-19T01:23:36.713Z,80.25
2023-05-19T01:24:40.151Z,80.27
2023-05-19T01:26:15.311Z,80.42
2023-05-19T01:27:18.805Z,80.53
2023-05-19T01:28:21.898Z,80.51
2023-05-19T01:29:56.949Z,80.75
2023-05-19T01:31:00.274Z,80.85
2023-05-19T01:32:03.490Z,80.87
2023-05-19T01:33:39.168Z,80.91
2023-05-19T01:34:42.501Z,80.82
2023-05-19T01:35:45.784Z,80.86
2023-05-19T01:37:21.006Z,80.96
2023-05-19T01:38:24.060Z,81.01
2023-05-19T01:39:27.093Z,81.00
2023-05-19T01:41:02.402Z,80.94
2023-05-19T01:42:05.669Z,80.89
2023-05-19T01:43:09.021Z,80.98
2023-05-19T01:44:44.635Z,81.01
2023-05-19T01:45:47.904Z,81.02
2023-05-19T01:46:51.453Z,81.01
2023-05-19T01:48:26.547Z,81.19
2023-05-19T01:49:29.801Z,81.22
2023-05-19T01:50:33.044Z,81.50
2023-05-19T01:52:08.358Z,81.46
2023-05-19T01:53:11.647Z,81.90
2023-05-19T01:54:14.798Z,81.85
2023-05-19T01:55:49.982Z,82.02
2023-05-19T01:56:53.119Z,81.86
2023-05-19T01:57:56.247Z,81.98
2023-05-19T01:59:31.678Z,82.06
2023-05-19T02:01:21.646Z,81.95
2023-05-19T02:02:25.174Z,81.90
2023-05-19T02:04:00.714Z,82.03
2023-05-19T02:05:04.488Z,82.22
2023-05-19T02:06:07.598Z,82.09
2023-05-19T02:07:42.749Z,82.04
2023-05-19T02:08:45.769Z,82.12
2023-05-19T02:09:49.144Z,82.14
2023-05-19T02:11:24.188Z,82.25
2023-05-19T02:12:27.176Z,82.42
2023-05-19T02:13:30.066Z,82.41
2023-05-19T02:15:04.988Z,82.45
2023-05-19T02:16:08.504Z,82.45
2023-05-19T02:17:12.321Z,82.58
2023-05-19T02:18:47.894Z,82.45
2023-05-19T02:19:51.456Z,82.44
2023-05-19T02:20:54.507Z,82.56
2023-05-19T02:22:29.658Z,82.66
2023-05-19T02:23:32.992Z,82.62
2023-05-19T02:24:36.149Z,82.88
2023-05-19T02:26:11.410Z,82.74
2023-05-19T02:27:14.435Z,82.96
2023-05-19T02:28:17.660Z,82.91
2023-05-19T02:29:52.891Z,82.91
2023-05-19T02:30:56.322Z,82.91
2023-05-19T02:31:59.891Z,83.00
2023-05-19T02:33:35.664Z,82.96
2023-05-19T02:34:38.957Z,83.63
2023-05-19T02:35:42.230Z,83.40
2023-05-19T02:37:17.560Z,83.40
2023-05-19T02:38:20.709Z,83.36
2023-05-19T02:39:23.822Z,83.36
2023-05-19T02:40:59.010Z,83.47
2023-05-19T02:42:02.274Z,83.40
2023-05-19T02:43:05.630Z,83.66
2023-05-19T02:44:40.847Z,83.70
2023-05-19T02:45:44.021Z,83.84
2023-05-19T02:46:47.432Z,83.83
2023-05-19T02:48:22.954Z,83.87
2023-05-19T02:49:26.151Z,83.95
2023-05-19T02:50:29.377Z,83.89
2023-05-19T02:52:04.537Z,84.14
2023-05-19T02:53:07.909Z,84.13
2023-05-19T02:54:11.446Z,84.16
2023-05-19T02:55:46.885Z,84.14
2023-05-19T02:56:50.170Z,84.10
2023-05-19T02:57:53.302Z,84.27
2023-05-19T02:59:31.173Z,84.72
2023-05-19T03:01:21.112Z,84.60
2023-05-19T03:02:25.011Z,84.57
2023-05-19T03:04:00.829Z,84.68
2023-05-19T03:05:04.410Z,84.69
2023-05-19T03:06:07.894Z,84.87
2023-05-19T03:07:43.132Z,84.66
2023-05-19T03:08:48.188Z,84.61
2023-05-19T03:09:51.355Z,84.69
2023-05-19T03:11:26.412Z,85.06
2023-05-19T03:12:29.560Z,85.03
2023-05-19T03:13:32.617Z,84.95
2023-05-19T03:15:07.522Z,85.33
2023-05-19T03:16:10.461Z,85.21
2023-05-19T03:17:14.019Z,85.17
2023-05-19T03:18:50.133Z,85.10
2023-05-19T03:19:53.911Z,85.23
2023-05-19T03:20:57.063Z,85.26
2023-05-19T03:22:32.260Z,85.18
2023-05-19T03:23:35.381Z,85.21
2023-05-19T03:24:38.765Z,85.18
2023-05-19T03:26:14.101Z,85.15
2023-05-19T03:27:17.182Z,85.11
2023-05-19T03:28:20.234Z,85.42
2023-05-19T03:29:55.371Z,85.21
2023-05-19T03:30:58.681Z,85.12
2023-05-19T03:32:01.894Z,85.21
2023-05-19T03:33:37.360Z,85.08
2023-05-19T03:34:40.586Z,84.99
2023-05-19T03:35:43.612Z,84.98
2023-05-19T03:37:18.678Z,84.99
2023-05-19T03:38:22.172Z,84.91
2023-05-19T03:39:25.602Z,84.98
2023-05-19T03:41:00.988Z,85.14
2023-05-19T03:42:04.607Z,85.17
2023-05-19T03:43:08.128Z,85.18
2023-05-19T03:44:43.380Z,85.16
2023-05-19T03:45:46.541Z,85.15
2023-05-19T03:46:50.248Z,85.14
2023-05-19T03:48:27.163Z,85.14
2023-05-19T03:49:30.367Z,85.19
2023-05-19T03:50:33.639Z,85.15
2023-05-19T03:52:09.246Z,85.16
2023-05-19T03:53:12.559Z,85.27
2023-05-19T03:54:15.808Z,85.60
2023-05-19T03:55:51.434Z,85.34
2023-05-19T03:56:54.710Z,85.47
2023-05-19T03:57:57.936Z,85.63
2023-05-19T03:59:33.128Z,85.94
2023-05-19T04:01:22.118Z,85.95
2023-05-19T04:02:25.597Z,85.92
2023-05-19T04:04:01.794Z,86.01
2023-05-19T04:05:47.680Z,86.11
2023-05-19T04:06:51.599Z,86.22
2023-05-19T04:07:55.083Z,86.24
2023-05-19T04:09:30.632Z,86.34
2023-05-19T04:10:34.480Z,86.41
2023-05-19T04:11:37.990Z,86.50
2023-05-19T04:13:13.751Z,86.61
2023-05-19T04:14:17.360Z,86.56
2023-05-19T04:15:20.997Z,86.69
2023-05-19T04:16:57.124Z,86.76
2023-05-19T04:18:00.735Z,86.74
2023-05-19T04:19:04.877Z,86.80
2023-05-19T04:20:41.575Z,86.86
2023-05-19T04:21:45.117Z,86.79
2023-05-19T04:22:48.852Z,86.77
2023-05-19T04:24:24.741Z,86.84
2023-05-19T04:25:28.529Z,87.14
2023-05-19T04:26:32.204Z,87.11
2023-05-19T04:28:08.039Z,87.22
2023-05-19T04:29:11.586Z,87.30
2023-05-19T04:30:17.284Z,87.51
2023-05-19T04:31:54.524Z,87.55
2023-05-19T04:32:58.025Z,87.61
2023-05-19T04:34:01.857Z,87.63
2023-05-19T04:35:37.706Z,87.74
2023-05-19T04:36:41.168Z,87.86
2023-05-19T04:37:46.032Z,87.88
2023-05-19T04:39:21.801Z,87.93
2023-05-19T04:40:25.276Z,87.93
2023-05-19T04:41:29.228Z,87.95
2023-05-19T04:43:05.049Z,88.00
2023-05-19T04:44:08.857Z,88.02
2023-05-19T04:45:12.453Z,87.96
2023-05-19T04:46:48.171Z,87.90
2023-05-19T04:47:53.060Z,87.86
2023-05-19T04:48:56.671Z,87.83
2023-05-19T04:50:32.741Z,87.75
2023-05-19T04:51:36.508Z,87.77
2023-05-19T04:52:42.336Z,87.79
2023-05-19T04:54:17.983Z,88.06
2023-05-19T04:55:21.503Z,88.11
2023-05-19T04:56:24.844Z,88.24
2023-05-19T04:58:00.750Z,88.28
2023-05-19T04:59:04.158Z,88.29
2023-05-19T05:00:18.544Z,88.39
2023-05-19T05:01:22.757Z,88.44
2023-05-19T05:02:27.003Z,88.42
2023-05-19T05:04:03.699Z,88.47
2023-05-19T05:05:07.296Z,88.46
2023-05-19T05:06:10.902Z,88.44
2023-05-19T05:07:46.449Z,88.45
2023-05-19T05:08:49.979Z,88.45
2023-05-19T05:09:54.034Z,88.42
2023-05-19T05:11:29.878Z,88.32
2023-05-19T05:12:33.540Z,88.24
2023-05-19T05:13:37.261Z,88.17
2023-05-19T05:15:13.191Z,87.99
2023-05-19T05:16:17.121Z,87.84
2023-05-19T05:17:21.278Z,87.80
2023-05-19T05:18:57.314Z,87.64
2023-05-19T05:20:01.498Z,87.48
2023-05-19T05:21:05.336Z,87.29
2023-05-19T05:22:41.141Z,87.00
2023-05-19T05:23:44.757Z,86.81
2023-05-19T05:24:48.286Z,86.79
2023-05-19T05:26:24.015Z,86.63
2023-05-19T05:27:27.553Z,86.38
2023-05-19T05:28:30.957Z,86.32
2023-05-19T05:30:06.287Z,86.10
2023-05-19T05:31:09.985Z,85.89
2023-05-19T05:32:13.608Z,85.84
2023-05-19T05:33:50.516Z,85.59
2023-05-19T05:34:54.212Z,85.56
2023-05-19T05:35:57.378Z,85.45
2023-05-19T05:37:32.973Z,84.87
2023-05-19T05:38:36.521Z,85.04
2023-05-19T05:39:40.111Z,84.67
2023-05-19T05:41:15.916Z,84.23
2023-05-19T05:42:19.352Z,84.21
2023-05-19T05:43:24.550Z,84.05
2023-05-19T05:45:00.275Z,83.56
2023-05-19T05:46:03.842Z,83.24
2023-05-19T05:47:07.797Z,82.87
2023-05-19T05:48:43.454Z,82.71
2023-05-19T05:49:46.876Z,82.34
2023-05-19T05:50:51.580Z,82.30
2023-05-19T05:52:45.338Z,81.72
2023-05-19T05:53:48.870Z,81.50
2023-05-19T05:54:52.414Z,81.32
2023-05-19T05:56:27.970Z,80.46
2023-05-19T05:57:31.328Z,80.35
2023-05-19T05:58:35.796Z,80.31
2023-05-19T06:00:18.161Z,80.29
2023-05-19T06:01:22.048Z,80.19
2023-05-19T06:02:27.697Z,79.98
2023-05-19T06:04:03.831Z,79.50
2023-05-19T06:05:07.099Z,79.12
2023-05-19T06:06:11.020Z,79.00
2023-05-19T06:07:46.251Z,78.82
2023-05-19T06:08:49.529Z,78.54
2023-05-19T06:09:52.781Z,78.15
2023-05-19T06:11:28.187Z,78.08
2023-05-19T06:12:31.437Z,77.92
2023-05-19T06:13:34.810Z,77.51
2023-05-19T06:15:10.288Z,77.58
2023-05-19T06:16:14.145Z,77.45
2023-05-19T06:17:18.188Z,76.99
2023-05-19T06:18:53.464Z,76.25
2023-05-19T06:19:57.404Z,76.03
2023-05-19T06:21:00.338Z,75.17
2023-05-19T06:22:35.766Z,74.78
2023-05-19T06:23:39.194Z,74.26
2023-05-19T06:24:45.223Z,74.45
2023-05-19T06:26:20.646Z,74.17
2023-05-19T06:27:24.072Z,73.74
2023-05-19T06:28:27.257Z,73.47
2023-05-19T06:30:02.680Z,73.44
2023-05-19T06:31:06.255Z,73.24
2023-05-19T06:32:09.976Z,73.15
2023-05-19T06:33:45.661Z,73.45
2023-05-19T06:34:48.904Z,73.50
2023-05-19T06:35:52.117Z,73.48
2023-05-19T06:37:27.073Z,73.36
2023-05-19T06:38:30.278Z,73.07
2023-05-19T06:39:33.422Z,72.82
2023-05-19T06:41:08.738Z,72.84
2023-05-19T06:42:12.052Z,72.48
2023-05-19T06:43:15.469Z,71.25
2023-05-19T06:44:51.136Z,71.11
2023-05-19T06:45:54.339Z,70.10
2023-05-19T06:46:58.070Z,70.11
2023-05-19T06:48:33.794Z,69.78
2023-05-19T06:49:37.233Z,69.18
2023-05-19T06:50:41.308Z,68.34
2023-05-19T06:52:16.561Z,67.73
2023-05-19T06:53:19.981Z,67.32
2023-05-19T06:54:23.390Z,66.96
2023-05-19T06:56:05.948Z,66.58
2023-05-19T06:57:09.399Z,65.73
2023-05-19T06:58:13.582Z,65.92
2023-05-19T06:59:48.588Z,65.75
2023-05-19T07:00:21.954Z,65.87
2023-05-19T07:01:26.874Z,65.92
2023-05-19T07:02:31.129Z,65.67
2023-05-19T07:04:07.745Z,65.13
2023-05-19T07:05:11.541Z,64.43
2023-05-19T07:06:14.687Z,64.21
2023-05-19T07:07:50.184Z,63.71
2023-05-19T07:08:53.503Z,63.61
2023-05-19T07:09:59.217Z,62.72
2023-05-19T07:11:34.476Z,62.44
2023-05-19T07:12:37.656Z,61.86
2023-05-19T07:13:40.704Z,62.58
2023-05-19T07:15:16.239Z,62.56
2023-05-19T07:16:19.616Z,61.84
2023-05-19T07:17:23.509Z,60.98
2023-05-19T07:18:59.349Z,61.02
2023-05-19T07:20:03.467Z,60.75
2023-05-19T07:21:07.113Z,61.13
2023-05-19T07:22:42.729Z,61.25
2023-05-19T07:23:46.293Z,61.07
2023-05-19T07:24:49.842Z,61.03
2023-05-19T07:26:25.131Z,60.82
2023-05-19T07:27:28.417Z,60.67
2023-05-19T07:28:31.843Z,60.48
2023-05-19T07:30:10.446Z,59.53
2023-05-19T07:31:14.105Z,59.96
2023-05-19T07:32:17.663Z,59.70
2023-05-19T07:33:54.888Z,60.49
2023-05-19T07:34:58.202Z,59.92
2023-05-19T07:36:01.431Z,60.91
2023-05-19T07:37:36.749Z,58.80
2023-05-19T07:38:40.289Z,59.28
2023-05-19T07:39:44.158Z,59.31
2023-05-19T07:41:19.787Z,58.44
2023-05-19T07:42:23.022Z,56.90
2023-05-19T07:43:26.340Z,56.33
2023-05-19T07:45:01.797Z,56.22
2023-05-19T07:46:05.230Z,55.80
2023-05-19T07:47:09.075Z,55.50
2023-05-19T07:48:44.554Z,54.40
2023-05-19T07:49:50.323Z,54.75
2023-05-19T07:50:55.034Z,54.40
2023-05-19T07:52:30.551Z,52.36
2023-05-19T07:53:33.996Z,52.98
2023-05-19T07:54:37.648Z,54.08
2023-05-19T07:56:12.903Z,53.48
2023-05-19T07:57:17.462Z,52.85
2023-05-19T07:58:20.590Z,52.63
2023-05-19T07:59:56.002Z,51.03
2023-05-19T08:00:18.363Z,51.03
2023-05-19T08:01:21.541Z,51.36
2023-05-19T08:02:25.093Z,50.32
2023-05-19T08:04:02.276Z,50.13
2023-05-19T08:05:09.279Z,49.31
2023-05-19T08:06:12.433Z,49.43
2023-05-19T08:07:48.061Z,49.74
2023-05-19T08:08:51.419Z,49.22
2023-05-19T08:09:54.859Z,48.76
2023-05-19T08:11:30.136Z,49.43
2023-05-19T08:12:33.516Z,49.66
2023-05-19T08:13:36.984Z,49.80
2023-05-19T08:15:12.133Z,48.40
2023-05-19T08:16:15.460Z,48.57
2023-05-19T08:17:19.084Z,48.91
2023-05-19T08:18:54.988Z,49.15
2023-05-19T08:19:58.629Z,49.25
2023-05-19T08:21:01.853Z,49.31
2023-05-19T08:22:37.208Z,48.40
2023-05-19T08:23:40.530Z,49.32
2023-05-19T08:24:43.812Z,48.62
2023-05-19T08:26:19.500Z,48.82
2023-05-19T08:27:24.575Z,48.40
2023-05-19T08:28:28.060Z,48.00
2023-05-19T08:30:03.231Z,47.68
2023-05-19T08:31:06.786Z,47.87
2023-05-19T08:32:12.954Z,46.81
2023-05-19T08:33:48.919Z,46.70
2023-05-19T08:34:51.963Z,46.83
2023-05-19T08:35:55.075Z,47.00
2023-05-19T08:37:32.043Z,46.85
2023-05-19T08:38:37.281Z,46.19
2023-05-19T08:39:40.312Z,46.60
2023-05-19T08:41:15.928Z,46.16
2023-05-19T08:42:19.441Z,46.82
2023-05-19T08:43:22.821Z,46.23
2023-05-19T08:44:59.818Z,46.46
2023-05-19T08:46:03.391Z,46.38
2023-05-19T08:47:07.701Z,46.33
2023-05-19T08:48:43.504Z,44.61
2023-05-19T08:49:46.723Z,44.53
2023-05-19T08:50:49.892Z,44.49
2023-05-19T08:52:25.144Z,44.69
2023-05-19T08:53:40.317Z,44.44
2023-05-19T08:54:43.753Z,45.79
2023-05-19T08:56:18.825Z,44.58
2023-05-19T08:57:21.978Z,44.76
2023-05-19T08:58:26.770Z,44.14
2023-05-19T09:00:18.061Z,43.78
2023-05-19T09:01:23.078Z,44.09
2023-05-19T09:02:26.978Z,43.86
2023-05-19T09:04:37.876Z,44.33
2023-05-19T09:05:42.284Z,43.55
2023-05-19T09:06:45.915Z,43.49
2023-05-19T09:08:21.377Z,42.56
2023-05-19T09:09:24.708Z,43.20
2023-05-19T09:10:29.228Z,42.79
2023-05-19T09:12:04.618Z,43.64
2023-05-19T09:13:07.855Z,44.24
2023-05-19T09:14:11.126Z,43.82
2023-05-19T09:15:46.526Z,43.06
2023-05-19T09:16:50.255Z,42.82
2023-05-19T09:17:54.361Z,41.68
2023-05-19T09:19:30.628Z,43.19
2023-05-19T09:20:34.432Z,43.40
2023-05-19T09:21:37.626Z,43.50
2023-05-19T09:23:14.273Z,43.89
2023-05-19T09:24:17.623Z,43.75
2023-05-19T09:25:21.154Z,43.25
2023-05-19T09:26:58.482Z,43.80
2023-05-19T09:28:02.949Z,43.95
2023-05-19T09:29:06.263Z,42.57
2023-05-19T09:30:41.815Z,42.78
2023-05-19T09:31:45.532Z,43.28
2023-05-19T09:32:49.769Z,43.53
2023-05-19T09:34:26.949Z,41.53
2023-05-19T09:35:30.698Z,42.31
2023-05-19T09:36:34.355Z,42.40
2023-05-19T09:38:09.715Z,43.00
2023-05-19T09:39:12.982Z,42.65
2023-05-19T09:40:18.735Z,43.10
2023-05-19T09:41:54.151Z,42.15
2023-05-19T09:42:57.479Z,41.96
2023-05-19T09:44:00.853Z,41.71
2023-05-19T09:45:36.237Z,41.90
2023-05-19T09:46:40.308Z,41.73
2023-05-19T09:47:43.800Z,41.78
2023-05-19T09:49:19.592Z,42.64
2023-05-19T09:50:23.004Z,41.84
2023-05-19T09:51:26.241Z,41.70
2023-05-19T09:53:02.159Z,42.50
2023-05-19T09:54:05.584Z,42.69
2023-05-19T09:55:09.230Z,41.71
2023-05-19T09:56:45.578Z,41.90
2023-05-19T09:57:49.681Z,41.50
2023-05-19T09:58:53.542Z,40.35
2023-05-19T10:00:17.975Z,40.02
2023-05-19T10:01:21.594Z,39.88
2023-05-19T10:02:25.589Z,39.77
2023-05-19T10:04:01.239Z,39.38
2023-05-19T10:05:05.270Z,40.10
2023-05-19T10:06:09.409Z,40.00
2023-05-19T10:07:44.736Z,40.57
2023-05-19T10:08:48.121Z,41.14
2023-05-19T10:09:51.676Z,41.79
2023-05-19T10:11:28.805Z,40.23
2023-05-19T10:12:32.251Z,41.29
2023-05-19T10:13:35.691Z,39.95
2023-05-19T10:15:10.982Z,41.53
2023-05-19T10:16:27.755Z,40.38
2023-05-19T10:17:31.628Z,40.29
2023-05-19T10:19:07.714Z,42.01
2023-05-19T10:20:11.533Z,40.59
2023-05-19T10:21:15.646Z,40.46
2023-05-19T10:22:50.986Z,41.92
2023-05-19T10:23:54.794Z,41.17
2023-05-19T10:24:59.547Z,39.79
2023-05-19T10:26:35.208Z,40.57
2023-05-19T10:27:38.611Z,39.74
2023-05-19T10:28:42.110Z,40.34
2023-05-19T10:30:19.928Z,40.14
2023-05-19T10:31:23.171Z,40.25
2023-05-19T10:32:27.211Z,40.39
2023-05-19T10:34:03.968Z,39.74
2023-05-19T10:35:07.566Z,39.31
2023-05-19T10:36:13.100Z,39.25
2023-05-19T10:37:48.979Z,42.92
2023-05-19T10:38:52.446Z,39.72
2023-05-19T10:39:56.143Z,40.68
2023-05-19T10:41:32.538Z,40.55
2023-05-19T10:42:38.534Z,40.24
2023-05-19T10:43:42.248Z,38.73
2023-05-19T10:45:17.968Z,40.59
2023-05-19T10:46:22.239Z,40.09
2023-05-19T10:47:26.207Z,40.47
2023-05-19T10:49:01.866Z,40.31
2023-05-19T10:50:05.138Z,40.06
2023-05-19T10:51:08.724Z,39.80
2023-05-19T10:52:44.143Z,39.52
2023-05-19T10:53:47.532Z,39.60
2023-05-19T10:54:53.634Z,39.73
2023-05-19T10:56:28.916Z,39.79
2023-05-19T10:57:32.235Z,39.79
2023-05-19T10:58:35.709Z,40.82
2023-05-19T11:00:18.458Z,40.34
2023-05-19T11:01:22.018Z,39.78
2023-05-19T11:02:25.978Z,40.27
2023-05-19T11:04:02.230Z,39.97
2023-05-19T11:05:06.362Z,40.03
2023-05-19T11:06:09.805Z,39.25
2023-05-19T11:07:45.466Z,39.40
2023-05-19T11:08:48.962Z,39.46
2023-05-19T11:09:52.403Z,38.76
2023-05-19T11:11:29.336Z,39.54
2023-05-19T11:12:32.494Z,36.83
2023-05-19T11:13:36.709Z,37.73
2023-05-19T11:15:12.260Z,37.48
2023-05-19T11:16:15.902Z,36.79
2023-05-19T11:17:19.478Z,37.41
2023-05-19T11:18:57.601Z,37.69
2023-05-19T11:20:01.621Z,37.47
2023-05-19T11:21:05.243Z,38.27
2023-05-19T11:22:40.919Z,37.42
2023-05-19T11:23:44.514Z,37.76
2023-05-19T11:24:48.095Z,37.96
2023-05-19T11:26:23.517Z,37.66
2023-05-19T11:27:26.891Z,38.14
2023-05-19T11:28:30.621Z,38.18
2023-05-19T11:30:06.331Z,38.31
2023-05-19T11:31:09.565Z,39.11
2023-05-19T11:32:13.377Z,39.52
2023-05-19T11:33:49.417Z,38.84
2023-05-19T11:34:52.653Z,37.82
2023-05-19T11:35:56.037Z,37.66
2023-05-19T11:37:31.753Z,36.80
2023-05-19T11:38:35.177Z,37.68
2023-05-19T11:39:38.624Z,38.24
2023-05-19T11:41:14.126Z,37.80
2023-05-19T11:42:18.530Z,36.92
2023-05-19T11:43:21.946Z,37.17
2023-05-19T11:44:57.385Z,37.52
2023-05-19T11:46:00.864Z,37.45
2023-05-19T11:47:04.553Z,37.55
2023-05-19T11:48:44.237Z,37.75
2023-05-19T11:49:47.852Z,36.92
2023-05-19T11:50:51.918Z,36.90
2023-05-19T11:52:27.549Z,36.29
2023-05-19T11:53:32.247Z,37.91
2023-05-19T11:54:37.251Z,37.91
2023-05-19T11:56:12.942Z,38.19
2023-05-19T11:57:16.173Z,38.20
2023-05-19T11:58:23.695Z,38.87
2023-05-19T11:59:58.870Z,37.44
2023-05-19T12:00:18.298Z,37.44
2023-05-19T12:01:21.615Z,37.82
2023-05-19T12:02:25.495Z,38.90
2023-05-19T12:04:02.345Z,37.82
2023-05-19T12:05:05.993Z,38.67
2023-05-19T12:06:10.322Z,37.42
2023-05-19T12:07:46.343Z,37.50
2023-05-19T12:08:49.801Z,37.34
2023-05-19T12:09:53.508Z,38.23
2023-05-19T12:11:29.407Z,38.19
2023-05-19T12:12:32.878Z,38.11
2023-05-19T12:13:36.235Z,38.37
2023-05-19T12:15:11.587Z,37.13
2023-05-19T12:16:15.488Z,36.94
2023-05-19T12:17:20.049Z,37.56
2023-05-19T12:18:55.928Z,37.75
2023-05-19T12:19:59.720Z,37.69
2023-05-19T12:21:03.410Z,37.94
2023-05-19T12:22:50.252Z,36.44
2023-05-19T12:23:53.932Z,35.92
2023-05-19T12:24:57.444Z,36.06
2023-05-19T12:26:33.308Z,35.67
2023-05-19T12:27:39.150Z,36.33
2023-05-19T12:28:44.824Z,36.61
2023-05-19T12:30:20.026Z,37.18
2023-05-19T12:31:25.018Z,37.19
2023-05-19T12:32:28.776Z,36.52
2023-05-19T12:34:04.786Z,36.65
2023-05-19T12:35:08.078Z,37.41
2023-05-19T12:36:11.418Z,37.07
2023-05-19T12:37:46.626Z,37.28
2023-05-19T12:38:50.161Z,37.39
2023-05-19T12:39:53.865Z,36.77
2023-05-19T12:41:29.426Z,37.17
2023-05-19T12:42:32.830Z,36.04
2023-05-19T12:43:36.427Z,36.27
2023-05-19T12:45:12.328Z,35.90
2023-05-19T12:46:16.494Z,36.43
2023-05-19T12:47:20.124Z,35.85
2023-05-19T12:48:56.047Z,35.84
2023-05-19T12:49:59.368Z,36.74
2023-05-19T12:51:02.813Z,36.44
2023-05-19T12:52:40.483Z,37.08
2023-05-19T12:53:44.344Z,37.57
2023-05-19T12:54:48.150Z,38.19
2023-05-19T12:56:24.520Z,36.89
2023-05-19T12:57:28.713Z,35.91
2023-05-19T12:58:34.452Z,36.19
2023-05-19T13:00:17.937Z,35.33
2023-05-19T13:01:22.599Z,35.11
2023-05-19T13:02:26.786Z,34.51
2023-05-19T13:04:06.071Z,35.84
2023-05-19T13:05:10.003Z,35.30
2023-05-19T13:06:13.178Z,35.11
2023-05-19T13:07:48.707Z,35.81
2023-05-19T13:08:52.182Z,35.72
2023-05-19T13:09:57.857Z,35.39
2023-05-19T13:11:33.187Z,36.00
2023-05-19T13:12:36.501Z,36.11
2023-05-19T13:13:40.249Z,36.27
2023-05-19T13:15:15.780Z,37.06
2023-05-19T13:16:19.480Z,36.70
2023-05-19T13:17:23.411Z,36.44
2023-05-19T13:18:59.616Z,37.07
2023-05-19T13:20:12.365Z,36.29
2023-05-19T13:21:19.450Z,36.41
2023-05-19T13:22:54.887Z,34.57
2023-05-19T13:23:58.533Z,35.75
2023-05-19T13:25:01.969Z,35.86
2023-05-19T13:26:37.630Z,35.73
2023-05-19T13:27:42.477Z,34.52
2023-05-19T13:28:45.829Z,34.03
2023-05-19T13:30:21.366Z,34.49
2023-05-19T13:31:26.033Z,34.29
2023-05-19T13:32:29.841Z,33.96
2023-05-19T13:34:05.509Z,34.23
2023-05-19T13:35:08.875Z,34.80
2023-05-19T13:36:12.231Z,34.87
2023-05-19T13:37:49.236Z,34.81
2023-05-19T13:38:52.905Z,35.28
2023-05-19T13:39:56.252Z,35.65
2023-05-19T13:41:31.872Z,35.36
2023-05-19T13:42:35.429Z,35.01
2023-05-19T13:43:38.632Z,35.06
2023-05-19T13:45:13.925Z,34.54
2023-05-19T13:46:17.501Z,34.48
2023-05-19T13:52:33.822Z,35.11
2023-05-19T13:54:09.629Z,36.22
2023-05-19T13:55:13.382Z,35.70
2023-05-19T13:56:16.702Z,36.40
2023-05-19T13:57:52.472Z,36.41
2023-05-19T13:58:55.762Z,35.27
2023-05-19T14:00:18.401Z,36.22
2023-05-19T14:01:22.573Z,35.32
2023-05-19T14:02:26.130Z,34.76
2023-05-19T14:04:02.794Z,34.71
2023-05-19T14:05:07.034Z,34.47
2023-05-19T14:06:10.469Z,34.56
2023-05-19T14:07:46.292Z,35.05
2023-05-19T14:08:49.778Z,35.57
2023-05-19T14:09:53.231Z,35.90
2023-05-19T14:11:28.925Z,35.37
2023-05-19T14:13:25.365Z,36.30
2023-05-19T14:14:39.865Z,35.97
2023-05-19T14:16:17.423Z,36.43
2023-05-19T14:17:24.702Z,36.28
2023-05-19T14:18:28.591Z,34.95
2023-05-19T14:20:04.131Z,35.93
2023-05-19T14:21:10.052Z,35.46
2023-05-19T14:22:13.624Z,36.31
2023-05-19T14:23:49.033Z,36.38
2023-05-19T14:24:52.155Z,34.80
2023-05-19T14:25:55.628Z,34.79
2023-05-19T14:27:31.632Z,34.34
2023-05-19T14:28:35.189Z,33.71
2023-05-19T14:29:38.590Z,33.74
2023-05-19T14:31:14.662Z,34.00
2023-05-19T14:32:19.624Z,33.51
2023-05-19T14:33:27.450Z,33.57
2023-05-19T14:35:05.411Z,32.99
2023-05-19T14:36:08.592Z,33.06
2023-05-19T14:37:11.640Z,33.38
2023-05-19T14:38:47.153Z,34.15
2023-05-19T14:39:50.617Z,33.47
2023-05-19T14:40:53.765Z,33.97
2023-05-19T14:42:29.250Z,33.47
2023-05-19T14:43:32.819Z,34.65
2023-05-19T14:44:37.528Z,33.03
2023-05-19T14:46:12.895Z,33.25
2023-05-19T14:47:16.926Z,33.00
2023-05-19T14:48:20.624Z,33.13
2023-05-19T14:49:56.070Z,32.81
2023-05-19T14:50:59.489Z,34.28
2023-05-19T14:52:03.296Z,33.89
2023-05-19T14:53:38.713Z,34.37
2023-05-19T14:54:42.254Z,35.13
2023-05-19T14:55:45.417Z,34.65
2023-05-19T14:57:21.671Z,34.55
2023-05-19T14:58:34.292Z,33.81
2023-05-19T14:59:37.769Z,32.73
2023-05-19T15:01:22.025Z,32.21
2023-05-19T15:02:27.529Z,32.30
2023-05-19T15:04:05.096Z,32.83
2023-05-19T15:05:08.929Z,33.08
2023-05-19T15:06:12.466Z,33.35
2023-05-19T15:07:52.055Z,32.38
2023-05-19T15:08:58.264Z,32.62
2023-05-19T15:10:01.892Z,33.35
2023-05-19T15:11:37.336Z,33.28
2023-05-19T15:12:40.451Z,34.35
2023-05-19T15:13:43.487Z,33.83
2023-05-19T15:15:19.016Z,33.97
2023-05-19T15:16:24.215Z,33.81
2023-05-19T15:17:28.000Z,33.64
2023-05-19T15:19:03.701Z,33.78
2023-05-19T15:20:08.450Z,34.11
2023-05-19T15:21:16.090Z,33.56
2023-05-19T15:22:51.493Z,34.08
2023-05-19T15:23:54.721Z,32.78
2023-05-19T15:24:57.901Z,33.70
2023-05-19T15:26:35.502Z,32.43
2023-05-19T15:27:38.895Z,32.99
2023-05-19T15:28:42.400Z,32.93
2023-05-19T15:30:17.627Z,33.08
2023-05-19T15:31:21.467Z,32.18
2023-05-19T15:32:27.504Z,31.89
2023-05-19T15:34:03.538Z,31.86
2023-05-19T15:35:06.933Z,33.41
2023-05-19T15:36:10.354Z,32.90
2023-05-19T15:37:45.873Z,32.45
2023-05-19T15:38:49.327Z,32.82
2023-05-19T15:39:52.709Z,33.31
2023-05-19T15:41:28.156Z,32.63
2023-05-19T15:42:31.788Z,33.64
2023-05-19T15:43:35.302Z,33.37
2023-05-19T15:45:10.555Z,33.05
2023-05-19T15:46:13.952Z,33.06
2023-05-19T15:47:17.668Z,33.01
2023-05-19T15:48:53.122Z,33.57
2023-05-19T15:49:59.064Z,33.59
2023-05-19T15:51:03.216Z,33.39
2023-05-19T15:52:38.651Z,34.49
2023-05-19T15:53:41.911Z,35.03
2023-05-19T15:54:45.389Z,34.19
2023-05-19T15:56:20.818Z,34.32
2023-05-19T15:57:24.428Z,35.02
2023-05-19T15:58:27.794Z,35.57
2023-05-19T16:00:17.969Z,35.82
2023-05-19T16:01:21.712Z,34.52
2023-05-19T16:02:25.545Z,33.94
2023-05-19T16:04:02.111Z,33.80
2023-05-19T16:05:46.532Z,33.87
2023-05-19T16:06:50.239Z,33.40
2023-05-19T16:07:54.020Z,33.48
2023-05-19T16:09:32.681Z,33.76